Umit G — TCVF — position and weather

sailwx.info

Track history (hours):
 
Tides and Currents Weather Stations Pressure Air Temp Water Temp Dewpoint Dewpoint Depression Visibility Wind Speed Wind Dir Waves Ship Positions

Umit G

Last reported at 2017-Sep-20 07:10 UTC. Time now 2017-Sep-26 09:34 UTC.
Position N 45°10' E 029°41'.

Length 95 m; draft 3.8 m.

Type: Ship. MMSI: 271000359.

Date/timePositionNaut miles runAvg speedWind from/ knotsBaromVisibWave heightAir tempDewpointWater temp
2017-Sep-20 07:10N 45°10' E 029°41'115 4.5
2017-Sep-19 05:33N 43°14' E 029°33'1 9.2
2017-Sep-19 05:28N 43°14' E 029°32'4 9.1
2017-Sep-19 05:00N 43°09' E 029°32'4 9.1
2017-Sep-19 04:30N 43°05' E 029°31'5 9.1
2017-Sep-19 04:00N 43°00' E 029°30'5 9.1
2017-Sep-19 03:30N 42°56' E 029°29'5 9.1
2017-Sep-19 03:01N 42°51' E 029°28'5 9.3
2017-Sep-19 02:31N 42°47' E 029°27'5 9.4
2017-Sep-19 02:00N 42°42' E 029°27'5 9.4
2017-Sep-19 01:30N 42°37' E 029°26'5 9.4
2017-Sep-19 01:00N 42°33' E 029°26'5 9.6
2017-Sep-19 00:30N 42°28' E 029°25'5 9.6
2017-Sep-19 00:00N 42°23' E 029°25'5 9.8
2017-Sep-18 23:30N 42°18' E 029°24'6 9.8
2017-Sep-18 22:56N 42°13' E 029°24'12 9.7
2017-Sep-18 21:41N 42°01' E 029°22'4 9.8
2017-Sep-18 21:15N 41°56' E 029°21'3 9.7
2017-Sep-18 20:58N 41°54' E 029°21'4 9.7
2017-Sep-18 20:30N 41°49' E 029°20'5 9.5
2017-Sep-18 20:00N 41°44' E 029°18'5 9.4
2017-Sep-18 19:30N 41°40' E 029°17'15 9.5
2017-Sep-18 17:57N 41°25' E 029°14'5 9.5
2017-Sep-18 17:27N 41°21' E 029°13'4 9.2
2017-Sep-18 17:00N 41°17' E 029°11'5 9.2
2017-Sep-18 16:30N 41°13' E 029°08'4 9.1
2017-Sep-18 16:00N 41°09' E 029°04'5 7.7
2017-Sep-18 15:24N 41°05' E 029°04'3 7.9
2017-Sep-18 15:00N 41°02' E 029°01'4 7.9
2017-Sep-18 14:30N 40°58' E 028°60'  
2017-Sep-16 09:53N 40°52' E 029°13'0 0.0
2017-Sep-16 09:29N 40°52' E 029°13'  
Track history (hours):
 
Tides and Currents Weather Stations Pressure Air Temp Water Temp Dewpoint Dewpoint Depression Visibility Wind Speed Wind Dir Waves Ship Positions

Umit G

Last reported at 2017-Sep-20 07:10 UTC. Time now 2017-Sep-26 09:34 UTC.
Position N 45°10' E 029°41'.

Length 95 m; draft 3.8 m.

Type: Ship. MMSI: 271000359.

Date/timePositionNaut miles runAvg speedWind from/ knotsBaromVisibWave heightAir tempDewpointWater temp
2017-Sep-20 07:10N 45°10' E 029°41'115 4.5
2017-Sep-19 05:33N 43°14' E 029°33'1 9.2
2017-Sep-19 05:28N 43°14' E 029°32'4 9.1
2017-Sep-19 05:00N 43°09' E 029°32'4 9.1
2017-Sep-19 04:30N 43°05' E 029°31'5 9.1
2017-Sep-19 04:00N 43°00' E 029°30'5 9.1
2017-Sep-19 03:30N 42°56' E 029°29'5 9.1
2017-Sep-19 03:01N 42°51' E 029°28'5 9.3
2017-Sep-19 02:31N 42°47' E 029°27'5 9.4
2017-Sep-19 02:00N 42°42' E 029°27'5 9.4
2017-Sep-19 01:30N 42°37' E 029°26'5 9.4
2017-Sep-19 01:00N 42°33' E 029°26'5 9.6
2017-Sep-19 00:30N 42°28' E 029°25'5 9.6
2017-Sep-19 00:00N 42°23' E 029°25'5 9.8
2017-Sep-18 23:30N 42°18' E 029°24'6 9.8
2017-Sep-18 22:56N 42°13' E 029°24'12 9.7
2017-Sep-18 21:41N 42°01' E 029°22'4 9.8
2017-Sep-18 21:15N 41°56' E 029°21'3 9.7
2017-Sep-18 20:58N 41°54' E 029°21'4 9.7
2017-Sep-18 20:30N 41°49' E 029°20'5 9.5
2017-Sep-18 20:00N 41°44' E 029°18'5 9.4
2017-Sep-18 19:30N 41°40' E 029°17'15 9.5
2017-Sep-18 17:57N 41°25' E 029°14'5 9.5
2017-Sep-18 17:27N 41°21' E 029°13'4 9.2
2017-Sep-18 17:00N 41°17' E 029°11'5 9.2
2017-Sep-18 16:30N 41°13' E 029°08'4 9.1
2017-Sep-18 16:00N 41°09' E 029°04'5 7.7
2017-Sep-18 15:24N 41°05' E 029°04'3 7.9
2017-Sep-18 15:00N 41°02' E 029°01'4 7.9
2017-Sep-18 14:30N 40°58' E 028°60'  
2017-Sep-16 09:53N 40°52' E 029°13'0 0.0
2017-Sep-16 09:29N 40°52' E 029°13'  

Dump ship's entire track history